createdAt,value
2017-09-24T00:00:18.071Z,16.40
2017-09-24T00:02:45.622Z,16.10
2017-09-24T00:05:14.003Z,15.37
2017-09-24T00:07:41.511Z,15.53
2017-09-24T00:10:09.122Z,15.97
2017-09-24T00:12:36.635Z,16.87
2017-09-24T00:15:04.245Z,16.80
2017-09-24T00:17:31.807Z,16.93
2017-09-24T00:19:59.334Z,18.93
2017-09-24T00:22:27.702Z,14.83
2017-09-24T00:24:56.068Z,14.90
2017-09-24T00:27:24.423Z,17.13
2017-09-24T00:29:51.943Z,18.10
2017-09-24T00:32:20.224Z,17.87
2017-09-24T00:34:47.843Z,19.50
2017-09-24T00:37:15.346Z,18.63
2017-09-24T00:39:42.868Z,18.93
2017-09-24T00:42:11.280Z,17.90
2017-09-24T00:44:38.906Z,16.20
2017-09-24T00:47:06.415Z,20.10
2017-09-24T00:49:33.939Z,17.00
2017-09-24T00:52:02.230Z,19.47
2017-09-24T00:54:29.798Z,19.13
2017-09-24T00:56:57.318Z,18.80
2017-09-24T00:59:25.591Z,19.50
2017-09-24T01:01:53.183Z,18.27
2017-09-24T01:04:20.698Z,18.70
2017-09-24T01:06:48.223Z,16.53
2017-09-24T01:09:16.430Z,17.57
2017-09-24T01:11:43.948Z,18.87
2017-09-24T01:14:11.455Z,18.20
2017-09-24T01:16:38.985Z,17.23
2017-09-24T01:19:06.482Z,17.20
2017-09-24T01:21:34.729Z,16.17
2017-09-24T01:24:02.274Z,17.00
2017-09-24T01:26:29.782Z,17.30
2017-09-24T01:28:58.055Z,17.13
2017-09-24T01:31:26.359Z,21.07
2017-09-24T01:33:53.914Z,20.50
2017-09-24T01:36:21.443Z,20.43
2017-09-24T01:38:48.947Z,21.67
2017-09-24T01:41:16.474Z,19.13
2017-09-24T01:43:44.747Z,19.70
2017-09-24T01:46:13.896Z,17.83
2017-09-24T01:48:41.511Z,22.10
2017-09-24T01:51:09.785Z,21.73
2017-09-24T01:53:38.180Z,23.13
2017-09-24T01:56:05.691Z,24.50
2017-09-24T01:58:33.938Z,23.53
2017-09-24T02:01:01.464Z,22.77
2017-09-24T02:03:28.983Z,25.10
2017-09-24T02:05:57.231Z,27.27
2017-09-24T02:08:24.760Z,22.80
2017-09-24T02:10:52.315Z,23.13
2017-09-24T02:13:19.974Z,22.20
2017-09-24T02:15:47.658Z,23.47
2017-09-24T02:18:18.059Z,23.20
2017-09-24T02:20:45.623Z,22.07
2017-09-24T02:23:13.218Z,21.03
2017-09-24T02:25:40.727Z,24.37
2017-09-24T02:28:09.014Z,23.53
2017-09-24T02:30:36.518Z,21.83
2017-09-24T02:33:04.059Z,22.77
2017-09-24T02:35:31.595Z,24.53
2017-09-24T02:37:59.130Z,23.30
2017-09-24T02:40:27.419Z,21.20
2017-09-24T02:42:55.771Z,22.93
2017-09-24T02:45:23.372Z,24.30
2017-09-24T02:47:50.882Z,21.23
2017-09-24T02:50:18.543Z,21.37
2017-09-24T02:52:46.053Z,22.83
2017-09-24T02:55:14.432Z,22.53
2017-09-24T02:57:41.991Z,23.13
2017-09-24T03:00:09.535Z,21.13
2017-09-24T03:02:37.912Z,25.07
2017-09-24T03:05:06.390Z,25.67
2017-09-24T03:07:33.894Z,23.00
2017-09-24T03:10:01.414Z,21.60
2017-09-24T03:12:28.970Z,23.80
2017-09-24T03:14:56.498Z,22.80
2017-09-24T03:17:24.003Z,23.67
2017-09-24T03:19:51.527Z,22.77
2017-09-24T03:22:19.794Z,24.27
2017-09-24T03:24:48.083Z,23.20
2017-09-24T03:27:16.371Z,22.20
2017-09-24T03:29:43.899Z,23.50
2017-09-24T03:32:11.407Z,21.37
2017-09-24T03:34:38.925Z,20.40
2017-09-24T03:37:07.202Z,21.30
2017-09-24T03:39:35.504Z,20.97
2017-09-24T03:42:03.102Z,23.50
2017-09-24T03:44:30.607Z,22.20
2017-09-24T03:46:58.981Z,19.87
2017-09-24T03:49:27.251Z,20.47
2017-09-24T03:51:55.538Z,21.57
2017-09-24T03:54:23.043Z,22.97
2017-09-24T03:56:50.571Z,21.70
2017-09-24T03:59:18.094Z,23.97
2017-09-24T04:01:46.378Z,23.70
2017-09-24T04:04:15.483Z,22.27
2017-09-24T04:06:43.007Z,22.50
2017-09-24T04:09:10.511Z,26.53
2017-09-24T04:11:38.163Z,24.37
2017-09-24T04:14:05.667Z,24.90
2017-09-24T04:16:33.195Z,23.60
2017-09-24T04:19:00.704Z,24.30
2017-09-24T04:21:31.887Z,25.70
2017-09-24T04:23:59.394Z,23.47
2017-09-24T04:26:26.915Z,24.47
2017-09-24T04:28:55.379Z,25.33
2017-09-24T04:31:22.898Z,23.37
2017-09-24T04:33:50.402Z,26.63
2017-09-24T04:36:17.947Z,22.90
2017-09-24T04:38:46.215Z,22.00
2017-09-24T04:41:14.486Z,24.77
2017-09-24T04:43:42.779Z,26.13
2017-09-24T04:46:10.282Z,24.17
2017-09-24T04:48:38.017Z,24.60
2017-09-24T04:51:08.471Z,25.40
2017-09-24T04:53:35.994Z,24.53
2017-09-24T04:56:03.510Z,24.67
2017-09-24T04:58:31.034Z,22.47
2017-09-24T05:01:00.346Z,23.90
2017-09-24T05:03:27.872Z,26.17
2017-09-24T05:05:55.523Z,22.67
2017-09-24T05:08:23.038Z,22.67
2017-09-24T05:10:50.542Z,23.37
2017-09-24T05:13:19.090Z,23.77
2017-09-24T05:15:46.599Z,23.53
2017-09-24T05:18:14.127Z,24.73
2017-09-24T05:20:43.102Z,26.83
2017-09-24T05:23:11.394Z,29.33
2017-09-24T05:25:39.667Z,27.37
2017-09-24T05:28:08.058Z,24.80
2017-09-24T05:30:35.559Z,25.97
2017-09-24T05:33:03.180Z,27.53
2017-09-24T05:35:30.853Z,25.90
2017-09-24T05:37:58.382Z,25.70
2017-09-24T05:40:26.650Z,25.90
2017-09-24T05:42:54.951Z,26.23
2017-09-24T05:45:22.467Z,25.13
2017-09-24T05:47:49.970Z,25.90
2017-09-24T05:50:17.523Z,25.60
2017-09-24T05:52:45.118Z,26.23
2017-09-24T05:55:12.722Z,26.70
2017-09-24T05:57:40.999Z,29.93
2017-09-24T06:00:09.605Z,25.93
2017-09-24T06:02:37.165Z,27.03
2017-09-24T06:05:05.534Z,27.70
2017-09-24T06:07:33.802Z,33.40
2017-09-24T06:10:02.294Z,27.37
2017-09-24T06:12:29.799Z,27.17
2017-09-24T06:14:57.327Z,29.70
2017-09-24T06:17:24.831Z,29.50
2017-09-24T06:19:52.355Z,28.40
2017-09-24T06:22:19.859Z,28.87
2017-09-24T06:24:48.147Z,28.33
2017-09-24T06:27:16.518Z,27.87
2017-09-24T06:29:44.810Z,28.90
2017-09-24T06:32:12.318Z,29.30
2017-09-24T06:34:39.844Z,30.17
2017-09-24T06:37:07.546Z,27.43
2017-09-24T06:39:35.091Z,27.33
2017-09-24T06:42:02.594Z,28.30
2017-09-24T06:44:30.866Z,28.80
2017-09-24T06:46:59.154Z,29.03
2017-09-24T06:49:27.427Z,29.23
2017-09-24T06:51:55.827Z,27.00
2017-09-24T06:54:23.330Z,26.57
2017-09-24T06:56:50.855Z,29.03
2017-09-24T06:59:18.363Z,28.27
2017-09-24T07:01:46.667Z,30.33
2017-09-24T07:04:14.171Z,30.53
2017-09-24T07:06:41.700Z,29.87
2017-09-24T07:09:09.238Z,30.20
2017-09-24T07:11:36.759Z,29.47
2017-09-24T07:14:04.273Z,32.43
2017-09-24T07:16:31.799Z,28.77
2017-09-24T07:19:00.075Z,28.00
2017-09-24T07:21:28.371Z,30.20
2017-09-24T07:23:55.875Z,30.47
2017-09-24T07:26:23.487Z,30.03
2017-09-24T07:28:50.994Z,31.50
2017-09-24T07:31:18.503Z,31.50
2017-09-24T07:33:46.027Z,33.27
2017-09-24T07:36:13.539Z,33.20
2017-09-24T07:38:41.062Z,30.67
2017-09-24T07:41:09.330Z,35.17
2017-09-24T07:43:37.623Z,31.67
2017-09-24T07:46:05.130Z,34.97
2017-09-24T07:48:32.655Z,34.33
2017-09-24T07:51:00.158Z,34.13
2017-09-24T07:53:27.758Z,35.07
2017-09-24T07:55:55.258Z,30.43
2017-09-24T07:58:22.783Z,31.47
2017-09-24T08:00:50.287Z,32.87
2017-09-24T08:03:17.895Z,33.17
2017-09-24T08:05:45.398Z,32.07
2017-09-24T08:08:12.919Z,35.27
2017-09-24T08:10:40.818Z,33.77
2017-09-24T08:13:08.343Z,36.17
2017-09-24T08:15:35.849Z,35.23
2017-09-24T08:18:03.451Z,36.00
2017-09-24T08:20:30.961Z,39.57
2017-09-24T08:22:58.504Z,38.90
2017-09-24T08:25:26.006Z,41.80
2017-09-24T08:27:54.302Z,40.30
2017-09-24T08:30:21.822Z,37.90
2017-09-24T08:32:49.419Z,40.77
2017-09-24T08:35:17.534Z,42.80
2017-09-24T08:37:45.050Z,41.17
2017-09-24T08:40:12.612Z,42.60
2017-09-24T08:42:40.119Z,43.30
2017-09-24T08:45:07.642Z,40.67
2017-09-24T08:47:35.149Z,42.17
2017-09-24T08:50:02.743Z,44.03
2017-09-24T08:52:30.250Z,42.77
2017-09-24T08:54:57.772Z,39.03
2017-09-24T08:57:25.370Z,41.07
2017-09-24T08:59:52.895Z,38.90
2017-09-24T09:02:20.403Z,40.70
2017-09-24T09:04:47.975Z,39.93
2017-09-24T09:07:16.246Z,40.53
2017-09-24T09:09:44.534Z,39.10
2017-09-24T09:12:12.822Z,39.93
2017-09-24T09:14:40.346Z,38.10
2017-09-24T09:17:07.852Z,40.13
2017-09-24T09:19:35.378Z,36.60
2017-09-24T09:22:03.670Z,36.77
2017-09-24T09:24:31.803Z,37.00
2017-09-24T09:26:59.324Z,39.37
2017-09-24T09:29:26.856Z,37.40
2017-09-24T09:31:54.359Z,37.17
2017-09-24T09:34:32.706Z,36.73
2017-09-24T09:37:00.970Z,36.63
2017-09-24T09:39:29.335Z,32.63
2017-09-24T09:41:56.957Z,34.60
2017-09-24T09:44:50.326Z,34.43
2017-09-24T09:47:25.752Z,31.93
2017-09-24T09:49:53.284Z,33.80
2017-09-24T09:52:21.590Z,33.80
2017-09-24T09:54:49.111Z,32.67
2017-09-24T09:57:16.619Z,30.53
2017-09-24T09:59:44.159Z,34.00
2017-09-24T10:02:11.775Z,31.80
2017-09-24T10:04:39.282Z,35.40
2017-09-24T10:07:18.614Z,31.40
2017-09-24T10:09:57.991Z,33.20
2017-09-24T10:12:25.511Z,31.40
2017-09-24T10:14:53.022Z,30.23
2017-09-24T10:17:21.266Z,27.50
2017-09-24T10:19:48.771Z,26.57
2017-09-24T10:22:17.063Z,21.77
2017-09-24T10:24:45.331Z,23.90
2017-09-24T10:27:14.239Z,23.30
2017-09-24T10:43:01.864Z,22.23
2017-09-24T10:45:29.377Z,19.73
2017-09-24T10:47:56.899Z,17.93
2017-09-24T10:50:24.402Z,18.77
2017-09-24T10:52:52.702Z,15.87
2017-09-24T10:55:20.302Z,17.00
2017-09-24T10:57:48.547Z,17.70
2017-09-24T11:00:16.054Z,16.90
2017-09-24T11:02:44.419Z,18.10
2017-09-24T11:05:11.921Z,17.97
2017-09-24T11:07:40.207Z,15.23
2017-09-24T11:10:07.706Z,15.90
2017-09-24T11:12:35.954Z,18.07
2017-09-24T11:15:03.467Z,16.53
2017-09-24T11:17:30.975Z,16.80
2017-09-24T11:19:58.499Z,17.37
2017-09-24T11:22:26.770Z,15.43
2017-09-24T11:24:55.063Z,16.37
2017-09-24T11:27:22.569Z,13.50
2017-09-24T11:29:50.092Z,14.40
2017-09-24T11:32:17.638Z,16.00
2017-09-24T11:34:45.159Z,13.93
2017-09-24T11:37:13.507Z,13.03
2017-09-24T11:39:41.030Z,14.80
2017-09-24T11:42:08.535Z,13.77
2017-09-24T11:44:36.153Z,15.40
2017-09-24T11:47:03.659Z,13.80
2017-09-24T11:49:31.189Z,14.10
2017-09-24T11:51:58.703Z,14.90
2017-09-24T11:54:26.975Z,14.00
2017-09-24T11:56:55.264Z,18.20
2017-09-24T11:59:23.535Z,16.13
2017-09-24T12:01:51.856Z,14.50
2017-09-24T12:04:19.351Z,15.43
2017-09-24T12:06:46.946Z,12.97
2017-09-24T12:09:14.452Z,12.13
2017-09-24T12:11:41.975Z,14.27
2017-09-24T12:14:09.514Z,16.20
2017-09-24T12:16:37.551Z,16.63
2017-09-24T12:19:05.155Z,15.70
2017-09-24T12:21:32.746Z,15.80
2017-09-24T12:24:00.249Z,13.03
2017-09-24T12:26:29.382Z,14.80
2017-09-24T12:28:56.932Z,15.23
2017-09-24T12:31:24.450Z,14.30
2017-09-24T12:33:51.955Z,15.23
2017-09-24T12:36:20.201Z,14.70
2017-09-24T12:38:48.478Z,14.93
2017-09-24T12:41:16.766Z,12.20
2017-09-24T12:43:44.340Z,13.70
2017-09-24T12:46:11.986Z,17.10
2017-09-24T12:48:39.494Z,14.40
2017-09-24T12:51:07.020Z,16.90
2017-09-24T12:53:34.530Z,14.57
2017-09-24T12:56:02.119Z,15.53
2017-09-24T12:58:30.242Z,16.43
2017-09-24T13:00:57.867Z,15.30
2017-09-24T13:03:25.366Z,20.07
2017-09-24T13:05:52.898Z,19.93
2017-09-24T13:08:20.403Z,19.63
2017-09-24T13:10:48.706Z,20.87
2017-09-24T13:13:16.258Z,19.00
2017-09-24T13:15:43.763Z,17.77
2017-09-24T13:18:11.287Z,18.73
2017-09-24T13:20:38.939Z,17.90
2017-09-24T13:23:06.459Z,17.53
2017-09-24T13:25:33.968Z,20.60
2017-09-24T13:28:01.527Z,19.93
2017-09-24T13:30:29.034Z,19.00
2017-09-24T13:32:56.627Z,18.57
2017-09-24T13:35:24.127Z,20.80
2017-09-24T13:37:51.647Z,19.03
2017-09-24T13:40:19.153Z,17.20
2017-09-24T13:42:46.678Z,18.83
2017-09-24T13:45:14.223Z,17.23
2017-09-24T13:47:41.742Z,17.30
2017-09-24T13:50:09.953Z,16.20
2017-09-24T13:52:37.479Z,16.23
2017-09-24T13:55:04.990Z,18.27
2017-09-24T13:57:32.515Z,16.57
2017-09-24T14:00:00.787Z,15.70
2017-09-24T14:02:29.083Z,15.07
2017-09-24T14:04:56.591Z,15.97
2017-09-24T14:07:24.099Z,14.37
2017-09-24T14:09:51.654Z,15.23
2017-09-24T14:12:19.163Z,14.50
2017-09-24T14:14:48.166Z,17.50
2017-09-24T14:17:15.666Z,13.93
2017-09-24T14:19:43.194Z,13.40
2017-09-24T14:22:11.470Z,16.23
2017-09-24T14:24:39.766Z,13.87
2017-09-24T14:27:07.267Z,13.33
2017-09-24T14:29:34.791Z,15.67
2017-09-24T14:32:02.300Z,16.00
2017-09-24T14:34:30.551Z,14.93
2017-09-24T14:36:58.058Z,15.33
2017-09-24T14:39:26.342Z,16.40
2017-09-24T14:41:54.615Z,14.97
2017-09-24T14:44:22.902Z,13.13
2017-09-24T14:46:50.404Z,12.93
2017-09-24T14:49:19.026Z,12.80
2017-09-24T14:51:47.298Z,12.80
2017-09-24T14:54:15.874Z,14.13
2017-09-24T14:56:43.468Z,13.93
2017-09-24T14:59:11.022Z,12.70
2017-09-24T15:01:38.543Z,13.37
2017-09-24T15:04:06.063Z,13.60
2017-09-24T15:06:33.760Z,14.33
2017-09-24T15:09:01.272Z,12.83
2017-09-24T15:11:28.795Z,11.80
2017-09-24T15:13:57.062Z,12.37
2017-09-24T15:16:24.588Z,11.33
2017-09-24T15:18:52.099Z,13.20
2017-09-24T15:21:20.390Z,12.73
2017-09-24T15:23:47.899Z,12.90
2017-09-24T15:26:15.422Z,11.87
2017-09-24T15:28:42.965Z,13.70
2017-09-24T15:31:10.491Z,14.27
2017-09-24T15:33:38.767Z,13.47
2017-09-24T15:36:07.059Z,14.67
2017-09-24T15:38:34.748Z,13.23
2017-09-24T15:41:02.274Z,15.60
2017-09-24T15:43:30.551Z,13.33
2017-09-24T15:45:58.842Z,12.37
2017-09-24T15:48:26.399Z,12.90
2017-09-24T15:50:53.954Z,14.73
2017-09-24T15:53:21.459Z,13.70
2017-09-24T15:55:48.967Z,12.87
2017-09-24T15:58:17.368Z,14.90
2017-09-24T16:00:44.882Z,12.00
2017-09-24T16:03:13.915Z,14.90
2017-09-24T16:05:41.423Z,14.13
2017-09-24T16:08:09.027Z,16.33
2017-09-24T16:10:36.587Z,15.77
2017-09-24T16:13:04.107Z,13.70
2017-09-24T16:15:31.618Z,14.17
2017-09-24T16:17:59.139Z,15.20
2017-09-24T16:20:27.408Z,16.80
2017-09-24T16:22:55.706Z,14.70
2017-09-24T16:25:23.215Z,13.23
2017-09-24T16:27:50.739Z,15.90
2017-09-24T16:30:18.239Z,18.17
2017-09-24T16:32:45.767Z,17.60
2017-09-24T16:35:13.271Z,17.33
2017-09-24T16:37:41.568Z,18.67
2017-09-24T16:40:09.135Z,21.43
2017-09-24T16:42:36.643Z,20.70
2017-09-24T16:45:04.166Z,19.57
2017-09-24T16:47:31.679Z,18.50
2017-09-24T16:49:59.207Z,22.47
2017-09-24T16:52:26.714Z,19.73
2017-09-24T16:54:55.003Z,21.80
2017-09-24T16:57:22.514Z,24.93
2017-09-24T16:59:50.042Z,23.73
2017-09-24T17:02:17.540Z,25.67
2017-09-24T17:04:45.070Z,24.73
2017-09-24T17:07:12.583Z,25.87
2017-09-24T17:09:40.106Z,27.17
2017-09-24T17:12:07.617Z,25.37
2017-09-24T17:14:35.167Z,23.27
2017-09-24T17:17:03.574Z,27.37
2017-09-24T17:19:31.094Z,24.27
2017-09-24T17:21:59.367Z,23.33
2017-09-24T17:24:27.663Z,25.50
2017-09-24T17:26:55.215Z,27.50
2017-09-24T17:29:22.730Z,25.27
2017-09-24T17:31:50.255Z,26.90
2017-09-24T17:34:17.758Z,24.10
2017-09-24T17:36:46.051Z,25.40
2017-09-24T17:39:14.317Z,27.20
2017-09-24T17:41:42.607Z,25.70
2017-09-24T17:44:10.878Z,24.83
2017-09-24T17:46:38.402Z,22.43
2017-09-24T17:49:05.910Z,21.30
2017-09-24T17:51:33.430Z,22.37
2017-09-24T17:54:00.938Z,19.40
2017-09-24T17:56:28.462Z,20.50
2017-09-24T17:58:56.735Z,20.87
2017-09-24T18:01:25.023Z,18.57
2017-09-24T18:03:53.303Z,22.97
2017-09-24T18:06:20.822Z,18.03
2017-09-24T18:08:48.441Z,14.37
2017-09-24T18:11:15.969Z,14.90
2017-09-24T18:13:44.291Z,14.80
2017-09-24T18:16:11.817Z,13.90
2017-09-24T18:18:39.324Z,14.23
2017-09-24T18:21:06.852Z,13.70
2017-09-24T18:23:34.705Z,12.90
2017-09-24T18:26:02.232Z,13.20
2017-09-24T18:28:30.507Z,15.50
2017-09-24T18:30:58.026Z,12.73
2017-09-24T18:33:25.530Z,12.80
2017-09-24T18:35:53.824Z,15.30
2017-09-24T18:38:21.335Z,11.10
2017-09-24T18:40:48.842Z,11.83
2017-09-24T18:43:16.367Z,11.70
2017-09-24T18:45:43.967Z,13.00
2017-09-24T18:48:11.494Z,10.40
2017-09-24T18:50:39.766Z,11.73
2017-09-24T18:53:08.070Z,11.47
2017-09-24T18:55:35.581Z,11.33
2017-09-24T18:58:03.101Z,10.30
2017-09-24T19:00:30.603Z,8.90
2017-09-24T19:02:58.227Z,10.57
2017-09-24T19:05:25.722Z,8.80
2017-09-24T19:07:53.320Z,8.73
2017-09-24T19:10:20.822Z,8.50
2017-09-24T19:12:49.202Z,8.03
2017-09-24T19:15:16.702Z,9.50
2017-09-24T19:17:44.986Z,10.17
2017-09-24T19:20:13.198Z,12.10
2017-09-24T19:22:40.715Z,10.80
2017-09-24T19:25:08.975Z,9.93
2017-09-24T19:27:37.254Z,10.67
2017-09-24T19:30:06.442Z,10.50
2017-09-24T19:32:34.050Z,12.67
2017-09-24T19:35:01.555Z,13.63
2017-09-24T19:37:30.687Z,14.30
2017-09-24T19:39:58.245Z,14.33
2017-09-24T19:42:25.767Z,15.40
2017-09-24T19:44:53.268Z,16.20
2017-09-24T19:47:20.803Z,13.80
2017-09-24T19:49:49.075Z,15.67
2017-09-24T19:52:17.630Z,17.30
2017-09-24T19:54:45.239Z,14.63
2017-09-24T19:57:12.799Z,18.40
2017-09-24T19:59:40.320Z,15.67
2017-09-24T20:02:07.830Z,17.30
2017-09-24T20:04:36.226Z,17.03
2017-09-24T20:07:03.746Z,16.50
2017-09-24T20:09:31.267Z,17.30
2017-09-24T20:11:58.779Z,13.23
2017-09-24T20:14:26.302Z,14.20
2017-09-24T20:16:54.599Z,13.83
2017-09-24T20:19:22.123Z,12.87
2017-09-24T20:21:51.143Z,13.50
2017-09-24T20:24:19.551Z,14.10
2017-09-24T20:26:47.053Z,14.40
2017-09-24T20:29:14.575Z,13.97
2017-09-24T20:31:42.078Z,14.43
2017-09-24T20:34:10.369Z,14.87
2017-09-24T20:36:37.878Z,15.10
2017-09-24T20:39:05.491Z,14.80
2017-09-24T20:41:33.107Z,16.03
2017-09-24T20:44:01.435Z,15.00
2017-09-24T20:46:28.962Z,14.33
2017-09-24T20:48:56.551Z,14.90
2017-09-24T20:51:24.078Z,15.90
2017-09-24T20:53:51.590Z,15.10
2017-09-24T20:56:19.111Z,16.70
2017-09-24T20:58:47.382Z,16.20
2017-09-24T21:01:15.859Z,14.27
2017-09-24T21:03:44.322Z,15.90
2017-09-24T21:06:11.843Z,15.57
2017-09-24T21:08:39.351Z,16.70
2017-09-24T21:11:06.876Z,17.17
2017-09-24T21:13:34.379Z,13.93
2017-09-24T21:16:02.850Z,13.27
2017-09-24T21:18:31.462Z,14.97
2017-09-24T21:20:58.993Z,16.47
2017-09-24T21:23:27.266Z,15.27
2017-09-24T21:25:55.558Z,15.57
2017-09-24T21:28:23.826Z,15.40
2017-09-24T21:30:52.130Z,15.07
2017-09-24T21:33:19.635Z,15.50
2017-09-24T21:35:48.675Z,15.43
2017-09-24T21:38:16.191Z,15.40
2017-09-24T21:40:43.702Z,15.17
2017-09-24T21:43:11.226Z,16.20
2017-09-24T21:45:39.494Z,17.00
2017-09-24T21:48:07.016Z,17.60
2017-09-24T21:50:34.521Z,19.73
2017-09-24T21:53:02.814Z,17.27
2017-09-24T21:55:30.356Z,16.27
2017-09-24T21:57:58.743Z,16.80
2017-09-24T22:00:27.010Z,18.57
2017-09-24T22:02:55.403Z,30.40
2017-09-24T22:05:23.638Z,116.07
2017-09-24T22:07:51.159Z,22.20
2017-09-24T22:10:18.699Z,17.33
2017-09-24T22:12:47.220Z,19.03
2017-09-24T22:15:14.735Z,19.30
2017-09-24T22:17:42.518Z,16.07
2017-09-24T22:20:10.019Z,17.03
2017-09-24T22:22:37.554Z,16.63
2017-09-24T22:25:05.076Z,16.93
2017-09-24T22:27:32.595Z,16.97
2017-09-24T22:30:00.106Z,18.30
2017-09-24T22:32:27.646Z,18.77
2017-09-24T22:34:55.159Z,18.10
2017-09-24T22:37:22.691Z,15.07
2017-09-24T22:39:50.222Z,15.60
2017-09-24T22:42:17.788Z,16.90
2017-09-24T22:44:45.344Z,17.17
2017-09-24T22:47:12.913Z,17.17
2017-09-24T22:49:40.415Z,16.13
2017-09-24T22:52:07.991Z,16.83
2017-09-24T22:54:36.389Z,16.00
2017-09-24T22:57:05.506Z,18.37
2017-09-24T22:59:33.052Z,18.33
2017-09-24T23:02:00.706Z,17.47
2017-09-24T23:04:28.270Z,18.53
2017-09-24T23:06:55.830Z,17.20
2017-09-24T23:09:23.359Z,16.97
2017-09-24T23:11:50.867Z,16.57
2017-09-24T23:16:52.194Z,17.77
2017-09-24T23:19:20.483Z,16.03
2017-09-24T23:21:48.059Z,17.67
2017-09-24T23:24:15.578Z,19.03
2017-09-24T23:26:43.854Z,17.30
2017-09-24T23:29:12.155Z,16.60
2017-09-24T23:31:39.667Z,16.87
2017-09-24T23:34:08.807Z,16.50
2017-09-24T23:36:36.314Z,16.63
2017-09-24T23:39:03.875Z,17.40
2017-09-24T23:41:31.402Z,17.80
2017-09-24T23:43:59.039Z,19.17
2017-09-24T23:46:26.631Z,17.47
2017-09-24T23:48:54.135Z,19.40
2017-09-24T23:51:21.654Z,20.03
2017-09-24T23:53:49.155Z,18.97
2017-09-24T23:56:17.442Z,16.40
2017-09-24T23:58:45.706Z,18.10
